createdAt,value
2022-11-05T00:01:14.143Z,98273.20
2022-11-05T00:04:00.930Z,98271.40
2022-11-05T00:06:48.025Z,98268.00
2022-11-05T00:09:31.176Z,98269.80
2022-11-05T00:12:30.220Z,98277.60
2022-11-05T00:15:16.694Z,98278.00
2022-11-05T00:17:44.649Z,98283.00
2022-11-05T00:20:13.805Z,98283.20
2022-11-05T00:23:00.475Z,98287.00
2022-11-05T00:25:30.068Z,98290.00
2022-11-05T00:28:02.240Z,98287.80
2022-11-05T00:30:30.558Z,98290.00
2022-11-05T00:33:04.923Z,98293.80
2022-11-05T00:35:32.922Z,98292.60
2022-11-05T00:38:00.864Z,98293.20
2022-11-05T00:40:28.909Z,98296.00
2022-11-05T00:43:15.746Z,98293.80
2022-11-05T00:45:45.223Z,98291.40
2022-11-05T00:48:32.573Z,98291.20
2022-11-05T00:51:00.662Z,98282.40
2022-11-05T00:53:28.612Z,98293.80
2022-11-05T00:55:56.729Z,98304.00
2022-11-05T00:58:24.672Z,98301.60
2022-11-05T01:00:54.519Z,98300.00
2022-11-05T01:03:30.809Z,98298.80
2022-11-05T01:06:11.227Z,98300.00
2022-11-05T01:08:43.371Z,98301.20
2022-11-05T01:11:37.364Z,98302.00
2022-11-05T01:14:16.242Z,98292.40
2022-11-05T01:16:45.652Z,98292.00
2022-11-05T01:19:14.553Z,98291.40
2022-11-05T01:21:44.673Z,98297.40
2022-11-05T01:24:12.644Z,98298.20
2022-11-05T01:26:41.060Z,98297.40
2022-11-05T01:29:10.880Z,98301.40
2022-11-05T01:31:39.004Z,98305.20
2022-11-05T01:34:06.972Z,98307.60
2022-11-05T01:36:34.790Z,98311.40
2022-11-05T01:39:02.909Z,98301.60
2022-11-05T01:41:33.064Z,98310.40
2022-11-05T01:44:05.001Z,98306.40
2022-11-05T01:46:42.968Z,98307.60
2022-11-05T01:49:17.982Z,98302.40
2022-11-05T01:51:46.117Z,98303.00
2022-11-05T01:54:16.908Z,98307.40
2022-11-05T01:56:56.684Z,98302.00
2022-11-05T01:59:39.615Z,98297.20
2022-11-05T02:02:09.518Z,98300.40
2022-11-05T02:04:45.056Z,98300.60
2022-11-05T02:07:13.218Z,98309.00
2022-11-05T02:09:47.299Z,98309.00
2022-11-05T02:12:15.533Z,98312.40
2022-11-05T02:14:43.472Z,98317.00
2022-11-05T02:17:45.046Z,98326.00
2022-11-05T02:20:41.996Z,98333.00
2022-11-05T02:23:47.574Z,98335.40
2022-11-05T02:26:59.541Z,98335.40
2022-11-05T02:30:09.819Z,98336.40
2022-11-05T02:36:15.271Z,98342.80
2022-11-05T02:39:39.665Z,98346.00
2022-11-05T02:42:45.004Z,98347.80
2022-11-05T02:45:40.010Z,98345.00
2022-11-05T02:48:50.481Z,98355.60
2022-11-05T02:51:54.189Z,98354.20
2022-11-05T02:54:30.647Z,98339.40
2022-11-05T02:56:59.072Z,98357.60
2022-11-05T02:59:27.724Z,98353.80
2022-11-05T03:01:56.079Z,98350.60
2022-11-05T03:04:24.282Z,98368.40
2022-11-05T03:07:38.655Z,98364.60
2022-11-05T03:10:46.268Z,98359.00
2022-11-05T03:13:21.603Z,98374.80
2022-11-05T03:15:58.959Z,98375.40
2022-11-05T03:18:39.025Z,98389.40
2022-11-05T03:21:20.180Z,98389.20
2022-11-05T03:24:08.273Z,98384.00
2022-11-05T03:26:46.406Z,98400.00
2022-11-05T03:29:25.667Z,98390.80
2022-11-05T03:31:55.533Z,98401.60
2022-11-05T03:34:50.104Z,98399.20
2022-11-05T03:37:19.594Z,98400.20
2022-11-05T03:39:51.589Z,98397.00
2022-11-05T03:42:24.010Z,98406.20
2022-11-05T03:44:54.755Z,98413.20
2022-11-05T03:47:25.905Z,98415.60
2022-11-05T03:50:41.103Z,98414.20
2022-11-05T03:53:32.498Z,98412.00
2022-11-05T03:56:46.421Z,98400.20
2022-11-05T03:59:14.489Z,98410.80
2022-11-05T04:01:42.718Z,98434.60
2022-11-05T04:04:11.253Z,98440.40
2022-11-05T04:07:01.459Z,98438.20
2022-11-05T04:09:48.757Z,98433.80
2022-11-05T04:12:36.495Z,98432.20
2022-11-05T04:15:07.826Z,98429.40
2022-11-05T04:17:35.735Z,98434.60
2022-11-05T04:20:22.907Z,98441.20
2022-11-05T04:23:22.343Z,98454.40
2022-11-05T04:25:50.439Z,98457.40
2022-11-05T04:28:18.365Z,98465.20
2022-11-05T04:30:46.543Z,98463.60
2022-11-05T04:33:16.243Z,98457.40
2022-11-05T04:35:49.078Z,98454.00
2022-11-05T04:38:19.156Z,98472.20
2022-11-05T04:40:47.934Z,98468.00
2022-11-05T04:43:18.926Z,98467.40
2022-11-05T04:45:47.160Z,98472.00
2022-11-05T04:48:15.309Z,98469.20
2022-11-05T04:50:43.504Z,98481.80
2022-11-05T04:53:12.085Z,98482.40
2022-11-05T04:55:40.239Z,98475.20
2022-11-05T04:58:08.921Z,98471.00
2022-11-05T05:00:39.246Z,98474.80
2022-11-05T05:03:07.367Z,98477.80
2022-11-05T05:05:35.706Z,98483.00
2022-11-05T05:08:06.673Z,98490.20
2022-11-05T05:10:38.616Z,98488.60
2022-11-05T05:13:06.804Z,98489.00
2022-11-05T05:15:34.827Z,98486.00
2022-11-05T05:18:02.780Z,98494.20
2022-11-05T05:20:49.643Z,98494.40
2022-11-05T05:23:17.919Z,98492.00
2022-11-05T05:25:46.189Z,98498.60
2022-11-05T05:28:14.159Z,98501.60
2022-11-05T05:30:42.270Z,98505.80
2022-11-05T05:33:10.715Z,98511.20
2022-11-05T05:35:39.298Z,98504.40
2022-11-05T05:38:07.247Z,98506.00
2022-11-05T05:40:35.236Z,98508.60
2022-11-05T05:43:03.209Z,98501.00
2022-11-05T05:45:31.165Z,98504.00
2022-11-05T05:47:59.054Z,98513.40
2022-11-05T05:50:26.898Z,98509.40
2022-11-05T05:52:54.834Z,98517.60
2022-11-05T05:55:23.280Z,98520.80
2022-11-05T05:57:51.367Z,98525.00
2022-11-05T06:00:19.433Z,98533.40
2022-11-05T06:02:47.626Z,98534.60
2022-11-05T06:05:16.045Z,98539.60
2022-11-05T06:07:44.019Z,98540.80
2022-11-05T06:10:12.049Z,98548.60
2022-11-05T06:12:40.027Z,98548.00
2022-11-05T06:15:08.711Z,98546.20
2022-11-05T06:17:36.704Z,98551.00
2022-11-05T06:20:06.025Z,98553.00
2022-11-05T06:22:33.888Z,98563.20
2022-11-05T06:25:02.056Z,98561.80
2022-11-05T06:27:29.985Z,98561.80
2022-11-05T06:29:59.124Z,98563.20
2022-11-05T06:32:27.280Z,98565.40
2022-11-05T06:34:55.289Z,98571.00
2022-11-05T06:37:24.046Z,98578.60
2022-11-05T06:39:52.042Z,98583.20
2022-11-05T06:42:20.041Z,98583.00
2022-11-05T06:44:48.256Z,98587.80
2022-11-05T06:47:16.111Z,98589.80
2022-11-05T06:49:44.526Z,98584.20
2022-11-05T06:52:13.589Z,98589.40
2022-11-05T06:54:42.514Z,98595.80
2022-11-05T06:57:11.329Z,98594.40
2022-11-05T06:59:39.498Z,98597.20
2022-11-05T07:02:07.695Z,98607.20
2022-11-05T07:04:35.752Z,98612.40
2022-11-05T07:07:03.791Z,98617.20
2022-11-05T07:09:32.762Z,98620.80
2022-11-05T07:12:00.722Z,98640.80
2022-11-05T07:14:28.992Z,98649.80
2022-11-05T07:16:57.780Z,98657.20
2022-11-05T07:19:25.810Z,98661.00
2022-11-05T07:21:55.370Z,98660.80
2022-11-05T07:24:28.137Z,98662.00
2022-11-05T07:26:58.264Z,98668.40
2022-11-05T07:29:29.649Z,98678.40
2022-11-05T07:32:00.564Z,98687.60
2022-11-05T07:34:28.737Z,98686.00
2022-11-05T07:36:59.993Z,98682.80
2022-11-05T07:39:28.588Z,98682.20
2022-11-05T07:41:57.950Z,98687.20
2022-11-05T07:44:31.972Z,98689.00
2022-11-05T07:46:59.804Z,98692.80
2022-11-05T07:49:27.702Z,98699.00
2022-11-05T07:51:55.575Z,98703.20
2022-11-05T07:54:26.603Z,98700.60
2022-11-05T07:56:55.489Z,98707.00
2022-11-05T07:59:23.353Z,98705.00
2022-11-05T08:01:53.012Z,98704.60
2022-11-05T08:04:21.652Z,98703.60
2022-11-05T08:06:49.823Z,98706.60
2022-11-05T08:09:18.610Z,98710.40
2022-11-05T08:11:49.575Z,98710.20
2022-11-05T08:14:20.098Z,98720.40
2022-11-05T08:16:48.042Z,98714.80
2022-11-05T08:19:15.926Z,98711.20
2022-11-05T08:21:43.735Z,98722.40
2022-11-05T08:24:11.755Z,98731.20
2022-11-05T08:26:39.451Z,98734.20
2022-11-05T08:29:07.267Z,98732.40
2022-11-05T08:31:37.265Z,98733.40
2022-11-05T08:34:05.166Z,98744.20
2022-11-05T08:36:35.313Z,98752.60
2022-11-05T08:39:03.324Z,98755.40
2022-11-05T08:41:31.214Z,98750.40
2022-11-05T08:43:59.011Z,98756.00
2022-11-05T08:46:26.804Z,98762.40
2022-11-05T08:48:54.655Z,98761.20
2022-11-05T08:51:22.478Z,98762.20
2022-11-05T08:53:50.305Z,98761.40
2022-11-05T08:56:18.315Z,98763.60
2022-11-05T08:58:46.689Z,98767.60
2022-11-05T09:01:14.844Z,98772.00
2022-11-05T09:03:43.168Z,98781.00
2022-11-05T09:06:11.411Z,98784.80
2022-11-05T09:08:39.249Z,98781.60
2022-11-05T09:11:07.157Z,98788.40
2022-11-05T09:13:35.119Z,98787.20
2022-11-05T09:16:03.719Z,98796.00
2022-11-05T09:18:31.669Z,98796.80
2022-11-05T09:20:59.492Z,98804.80
2022-11-05T09:23:27.404Z,98803.20
2022-11-05T09:25:55.360Z,98805.80
2022-11-05T09:28:24.708Z,98806.20
2022-11-05T09:30:53.115Z,98809.20
2022-11-05T09:33:24.023Z,98811.80
2022-11-05T09:35:52.867Z,98811.60
2022-11-05T09:38:20.975Z,98807.40
2022-11-05T09:40:58.123Z,98808.60
2022-11-05T09:43:37.793Z,98810.60
2022-11-05T09:46:12.650Z,98817.00
2022-11-05T09:48:40.771Z,98821.80
2022-11-05T09:51:08.639Z,98816.80
2022-11-05T09:53:41.218Z,98820.80
2022-11-05T09:56:31.482Z,98821.20
2022-11-05T09:59:14.113Z,98827.80
2022-11-05T10:01:42.395Z,98830.20
2022-11-05T10:04:21.206Z,98829.80
2022-11-05T10:06:54.335Z,98833.80
2022-11-05T10:09:52.170Z,98841.60
2022-11-05T10:12:32.195Z,98846.80
2022-11-05T10:15:22.723Z,98851.20
2022-11-05T10:17:58.986Z,98856.60
2022-11-05T10:20:36.690Z,98852.80
2022-11-05T10:23:17.464Z,98855.00
2022-11-05T10:25:55.115Z,98857.60
2022-11-05T10:28:29.853Z,98858.20
2022-11-05T10:31:07.318Z,98857.40
2022-11-05T10:33:54.957Z,98862.60
2022-11-05T10:36:34.342Z,98861.40
2022-11-05T10:39:11.678Z,98864.20
2022-11-05T10:42:19.223Z,98867.40
2022-11-05T10:44:53.941Z,98867.40
2022-11-05T10:47:47.000Z,98876.20
2022-11-05T10:50:19.176Z,98875.60
2022-11-05T10:53:16.300Z,98874.20
2022-11-05T10:55:47.106Z,98877.40
2022-11-05T10:58:18.137Z,98883.40
2022-11-05T11:00:52.365Z,98887.60
2022-11-05T11:03:46.819Z,98888.00
2022-11-05T11:06:28.558Z,98890.60
2022-11-05T11:09:06.596Z,98887.40
2022-11-05T11:11:38.198Z,98883.20
2022-11-05T11:14:12.367Z,98882.20
2022-11-05T11:16:45.459Z,98887.00
2022-11-05T11:19:33.693Z,98881.60
2022-11-05T11:22:04.633Z,98882.20
2022-11-05T11:24:50.317Z,98882.00
2022-11-05T11:27:26.245Z,98882.40
2022-11-05T11:30:05.180Z,98885.00
2022-11-05T11:32:41.664Z,98892.60
2022-11-05T11:35:21.434Z,98897.80
2022-11-05T11:37:53.956Z,98898.20
2022-11-05T11:40:31.467Z,98907.60
2022-11-05T11:43:03.353Z,98911.80
2022-11-05T11:45:45.787Z,98910.80
2022-11-05T11:48:38.187Z,98915.80
2022-11-05T11:51:22.236Z,98913.20
2022-11-05T11:53:50.098Z,98904.40
2022-11-05T11:56:20.055Z,98906.40
2022-11-05T11:58:53.994Z,98899.20
2022-11-05T12:01:52.323Z,98901.00
2022-11-05T12:05:24.323Z,98897.80
2022-11-05T12:07:55.544Z,98904.60
2022-11-05T12:10:55.616Z,98910.40
2022-11-05T12:13:51.512Z,98917.00
2022-11-05T12:16:25.129Z,98918.80
2022-11-05T12:19:21.597Z,98915.60
2022-11-05T12:22:10.625Z,98921.60
2022-11-05T12:25:21.611Z,98925.60
2022-11-05T12:28:11.034Z,98915.80
2022-11-05T12:30:53.584Z,98921.00
2022-11-05T12:33:31.851Z,98923.60
2022-11-05T12:37:10.149Z,98932.20
2022-11-05T12:40:12.862Z,98941.00
2022-11-05T12:42:50.023Z,98950.60
2022-11-05T12:45:27.414Z,98946.20
2022-11-05T12:48:10.853Z,98943.00
2022-11-05T12:51:10.396Z,98947.00
2022-11-05T12:54:09.459Z,98958.20
2022-11-05T12:56:57.815Z,98970.40
2022-11-05T13:00:04.621Z,98968.20
2022-11-05T13:02:45.438Z,98975.20
2022-11-05T13:05:28.338Z,98983.00
2022-11-05T13:08:08.637Z,98988.80
2022-11-05T13:10:52.455Z,98988.00
2022-11-05T13:13:38.379Z,98998.40
2022-11-05T13:16:22.318Z,98994.20
2022-11-05T13:18:58.025Z,98990.60
2022-11-05T13:21:29.079Z,99000.80
2022-11-05T13:24:22.065Z,99008.80
2022-11-05T13:27:11.494Z,99006.20
2022-11-05T13:33:15.096Z,99027.40
2022-11-05T13:36:34.126Z,99021.40
2022-11-05T13:39:17.254Z,99020.40
2022-11-05T13:42:03.810Z,99025.00
2022-11-05T13:44:58.351Z,99028.40
2022-11-05T13:48:15.644Z,99030.80
2022-11-05T13:51:28.875Z,99026.20
2022-11-05T13:54:34.764Z,99031.60
2022-11-05T13:57:51.745Z,99034.20
2022-11-05T14:00:22.553Z,99046.40
2022-11-05T14:02:57.835Z,99044.40
2022-11-05T14:05:38.911Z,99050.00
2022-11-05T14:08:18.088Z,99053.00
2022-11-05T14:11:07.908Z,99058.00
2022-11-05T14:13:38.534Z,99059.00
2022-11-05T14:16:21.520Z,99063.60
2022-11-05T14:19:20.338Z,99063.00
2022-11-05T14:21:52.035Z,99063.20
2022-11-05T14:24:25.054Z,99068.80
2022-11-05T14:27:02.379Z,99072.40
2022-11-05T14:29:46.290Z,99075.80
2022-11-05T14:32:17.055Z,99083.40
2022-11-05T14:35:21.481Z,99088.80
2022-11-05T14:37:54.132Z,99098.80
2022-11-05T14:40:21.954Z,99094.00
2022-11-05T14:42:55.324Z,99098.20
2022-11-05T14:45:35.089Z,99105.00
2022-11-05T14:48:27.327Z,99108.60
2022-11-05T14:50:55.181Z,99106.60
2022-11-05T14:53:34.657Z,99108.80
2022-11-05T14:56:13.020Z,99111.40
2022-11-05T14:58:42.450Z,99117.60
2022-11-05T15:01:13.370Z,99111.40
2022-11-05T15:03:45.825Z,99118.60
2022-11-05T15:06:27.219Z,99128.20
2022-11-05T15:09:13.541Z,99126.00
2022-11-05T15:11:56.964Z,99126.00
2022-11-05T15:14:32.118Z,99131.80
2022-11-05T15:17:34.761Z,99138.00
2022-11-05T15:20:22.278Z,99143.80
2022-11-05T15:23:01.350Z,99146.00
2022-11-05T15:25:42.142Z,99149.80
2022-11-05T15:28:40.778Z,99143.40
2022-11-05T15:31:14.731Z,99140.40
2022-11-05T15:33:44.956Z,99143.60
2022-11-05T15:36:29.468Z,99152.60
2022-11-05T15:39:27.470Z,99158.20
2022-11-05T15:41:46.658Z,99160.20
2022-11-05T15:44:26.087Z,99164.60
2022-11-05T15:47:13.610Z,99164.00
2022-11-05T15:49:48.276Z,99167.60
2022-11-05T15:52:19.566Z,99176.60
2022-11-05T15:55:08.358Z,99175.20
2022-11-05T15:57:40.423Z,99169.60
2022-11-05T16:00:19.775Z,99174.60
2022-11-05T16:02:59.237Z,99177.20
2022-11-05T16:05:30.459Z,99177.20
2022-11-05T16:07:59.750Z,99183.80
2022-11-05T16:10:34.590Z,99182.60
2022-11-05T16:13:32.280Z,99189.20
2022-11-05T16:16:03.452Z,99191.80
2022-11-05T16:18:34.851Z,99195.60
2022-11-05T16:21:07.344Z,99191.60
2022-11-05T16:23:59.279Z,99197.20
2022-11-05T16:29:39.856Z,99204.40
2022-11-05T16:32:31.544Z,99205.80
2022-11-05T16:35:02.131Z,99205.00
2022-11-05T16:37:37.243Z,99203.80
2022-11-05T16:40:23.610Z,99210.20
2022-11-05T16:42:53.395Z,99220.80
2022-11-05T16:45:24.467Z,99225.20
2022-11-05T16:47:53.686Z,99227.00
2022-11-05T16:50:32.216Z,99229.20
2022-11-05T16:53:00.114Z,99233.20
2022-11-05T16:55:28.154Z,99236.40
2022-11-05T16:57:56.116Z,99238.40
2022-11-05T17:00:24.469Z,99243.00
2022-11-05T17:02:52.861Z,99247.20
2022-11-05T17:05:32.706Z,99251.60
2022-11-05T17:08:01.440Z,99257.60
2022-11-05T17:10:29.409Z,99260.80
2022-11-05T17:12:57.557Z,99268.20
2022-11-05T17:15:31.189Z,99274.80
2022-11-05T17:17:59.562Z,99272.80
2022-11-05T17:20:40.677Z,99275.00
2022-11-05T17:23:11.285Z,99276.00
2022-11-05T17:25:41.195Z,99280.00
2022-11-05T17:28:09.839Z,99280.20
2022-11-05T17:30:41.156Z,99280.40
2022-11-05T17:33:11.446Z,99281.20
2022-11-05T17:35:41.619Z,99286.40
2022-11-05T17:38:10.714Z,99288.00
2022-11-05T17:40:39.303Z,99282.60
2022-11-05T17:43:07.778Z,99287.60
2022-11-05T17:45:42.417Z,99284.00
2022-11-05T17:48:10.782Z,99281.20
2022-11-05T17:50:43.998Z,99284.80
2022-11-05T17:53:12.596Z,99288.40
2022-11-05T17:55:44.947Z,99293.40
2022-11-05T17:58:13.041Z,99284.60
2022-11-05T18:00:41.280Z,99285.20
2022-11-05T18:03:10.913Z,99286.80
2022-11-05T18:05:40.214Z,99286.60
2022-11-05T18:08:08.870Z,99295.20
2022-11-05T18:10:38.883Z,99304.20
2022-11-05T18:13:06.930Z,99308.40
2022-11-05T18:15:36.495Z,99300.40
2022-11-05T18:18:04.531Z,99296.40
2022-11-05T18:20:33.048Z,99306.40
2022-11-05T18:23:00.982Z,99301.20
2022-11-05T18:25:28.950Z,99302.00
2022-11-05T18:27:56.968Z,99305.20
2022-11-05T18:30:24.884Z,99312.60
2022-11-05T18:32:54.357Z,99309.40
2022-11-05T18:35:23.494Z,99312.20
2022-11-05T18:37:51.352Z,99315.60
2022-11-05T18:40:19.421Z,99320.80
2022-11-05T18:42:48.351Z,99320.40
2022-11-05T18:45:16.342Z,99317.60
2022-11-05T18:47:44.273Z,99315.40
2022-11-05T18:50:12.322Z,99320.80
2022-11-05T18:52:40.492Z,99323.00
2022-11-05T18:55:09.435Z,99318.60
2022-11-05T18:57:37.352Z,99320.20
2022-11-05T19:00:06.226Z,99322.80
2022-11-05T19:02:34.197Z,99323.40
2022-11-05T19:07:52.270Z,99332.00
2022-11-05T19:10:20.578Z,99335.20
2022-11-05T19:12:50.286Z,99335.00
2022-11-05T19:15:18.632Z,99345.00
2022-11-05T19:17:46.601Z,99341.00
2022-11-05T19:20:17.056Z,99335.60
2022-11-05T19:22:44.967Z,99348.00
2022-11-05T19:25:18.024Z,99350.80
2022-11-05T19:27:46.552Z,99348.40
2022-11-05T19:30:14.745Z,99356.20
2022-11-05T19:32:42.807Z,99362.80
2022-11-05T19:35:11.521Z,99361.40
2022-11-05T19:37:39.464Z,99364.00
2022-11-05T19:40:09.237Z,99367.00
2022-11-05T19:42:37.309Z,99371.00
2022-11-05T19:45:23.452Z,99373.20
2022-11-05T19:47:54.288Z,99376.40
2022-11-05T19:50:22.653Z,99380.40
2022-11-05T19:52:50.726Z,99381.20
2022-11-05T19:55:18.900Z,99383.20
2022-11-05T19:57:46.869Z,99385.80
2022-11-05T20:00:15.623Z,99395.80
2022-11-05T20:02:46.154Z,99399.20
2022-11-05T20:05:14.602Z,99398.40
2022-11-05T20:07:45.922Z,99402.80
2022-11-05T20:10:18.182Z,99401.80
2022-11-05T20:12:46.145Z,99409.00
2022-11-05T20:15:15.718Z,99416.80
2022-11-05T20:17:50.333Z,99422.60
2022-11-05T20:20:18.940Z,99412.00
2022-11-05T20:22:47.543Z,99418.80
2022-11-05T20:25:33.153Z,99427.60
2022-11-05T20:28:01.194Z,99425.20
2022-11-05T20:30:29.592Z,99422.20
2022-11-05T20:32:57.959Z,99425.40
2022-11-05T20:35:25.929Z,99419.40
2022-11-05T20:37:54.450Z,99432.20
2022-11-05T20:40:22.703Z,99434.00
2022-11-05T20:42:50.650Z,99434.80
2022-11-05T20:45:18.539Z,99440.20
2022-11-05T20:47:46.685Z,99434.20
2022-11-05T20:50:14.688Z,99443.00
2022-11-05T20:52:42.734Z,99434.20
2022-11-05T20:55:11.103Z,99439.80
2022-11-05T20:57:39.198Z,99440.00
2022-11-05T21:00:08.377Z,99442.20
2022-11-05T21:02:38.505Z,99444.40
2022-11-05T21:05:10.612Z,99445.80
2022-11-05T21:07:38.733Z,99447.40
2022-11-05T21:10:07.982Z,99451.20
2022-11-05T21:12:36.302Z,99452.00
2022-11-05T21:15:05.769Z,99456.60
2022-11-05T21:17:33.879Z,99453.40
2022-11-05T21:20:02.279Z,99450.40
2022-11-05T21:22:30.846Z,99447.20
2022-11-05T21:24:58.792Z,99448.80
2022-11-05T21:27:26.789Z,99450.40
2022-11-05T21:29:54.657Z,99455.80
2022-11-05T21:32:22.653Z,99456.60
2022-11-05T21:34:50.590Z,99463.20
2022-11-05T21:37:20.516Z,99465.00
2022-11-05T21:39:48.556Z,99460.40
2022-11-05T21:42:16.641Z,99459.80
2022-11-05T21:44:44.616Z,99460.20
2022-11-05T21:47:13.047Z,99458.60
2022-11-05T21:49:40.869Z,99456.20
2022-11-05T21:52:30.654Z,99463.20
2022-11-05T21:55:34.098Z,99466.20
2022-11-05T21:58:28.323Z,99458.80
2022-11-05T22:00:56.397Z,99460.00
2022-11-05T22:03:24.560Z,99452.80
2022-11-05T22:05:52.909Z,99453.00
2022-11-05T22:08:20.916Z,99455.00
2022-11-05T22:10:48.886Z,99458.00
2022-11-05T22:13:16.801Z,99460.60
2022-11-05T22:15:55.422Z,99457.80
2022-11-05T22:18:23.309Z,99462.40
2022-11-05T22:20:51.311Z,99458.00
2022-11-05T22:23:19.180Z,99462.40
2022-11-05T22:25:47.251Z,99462.60
2022-11-05T22:28:15.417Z,99462.80
2022-11-05T22:30:43.703Z,99458.20
2022-11-05T22:33:11.658Z,99460.00
2022-11-05T22:35:39.521Z,99464.40
2022-11-05T22:38:07.383Z,99464.00
2022-11-05T22:40:35.559Z,99464.20
2022-11-05T22:43:04.528Z,99468.20
2022-11-05T22:45:36.072Z,99461.20
2022-11-05T22:48:08.599Z,99474.40
2022-11-05T22:50:36.595Z,99470.00
2022-11-05T22:53:05.639Z,99461.40
2022-11-05T22:55:34.959Z,99464.60
2022-11-05T22:58:03.170Z,99464.60
2022-11-05T23:00:36.624Z,99463.80
2022-11-05T23:03:04.958Z,99462.80
2022-11-05T23:05:36.491Z,99464.80
2022-11-05T23:08:24.067Z,99466.00
2022-11-05T23:11:11.264Z,99467.20
2022-11-05T23:13:39.259Z,99465.80
2022-11-05T23:16:26.909Z,99467.20
2022-11-05T23:19:13.552Z,99471.00
2022-11-05T23:22:00.089Z,99469.60
2022-11-05T23:24:27.937Z,99471.40
2022-11-05T23:26:58.085Z,99477.80
2022-11-05T23:29:28.060Z,99476.00
2022-11-05T23:32:17.198Z,99476.00
2022-11-05T23:34:45.088Z,99476.60
2022-11-05T23:37:31.840Z,99473.60
2022-11-05T23:39:59.672Z,99478.80
2022-11-05T23:42:46.337Z,99482.80
2022-11-05T23:45:34.180Z,99481.20
2022-11-05T23:48:35.440Z,99488.20
2022-11-05T23:51:11.057Z,99491.40
2022-11-05T23:53:40.770Z,99490.40
2022-11-05T23:56:13.505Z,99492.80
2022-11-05T23:58:43.663Z,99488.80
